sensor_id;sensor_type;location;lat;lon;timestamp;temperature;humidity
64961;SHT31;51487;52.266;10.542;2022-12-22T00:02:32;8.60;93.96
64961;SHT31;51487;52.266;10.542;2022-12-22T00:05:22;8.69;93.87
64961;SHT31;51487;52.266;10.542;2022-12-22T00:08:07;8.69;94.12
64961;SHT31;51487;52.266;10.542;2022-12-22T00:10:53;8.66;94.11
64961;SHT31;51487;52.266;10.542;2022-12-22T00:13:41;8.65;94.19
64961;SHT31;51487;52.266;10.542;2022-12-22T00:16:33;8.70;94.22
64961;SHT31;51487;52.266;10.542;2022-12-22T00:19:18;8.73;94.05
64961;SHT31;51487;52.266;10.542;2022-12-22T00:22:23;8.55;94.29
64961;SHT31;51487;52.266;10.542;2022-12-22T00:25:13;8.56;94.59
64961;SHT31;51487;52.266;10.542;2022-12-22T00:27:58;8.63;94.36
64961;SHT31;51487;52.266;10.542;2022-12-22T00:30:43;8.62;94.09
64961;SHT31;51487;52.266;10.542;2022-12-22T00:33:28;8.63;94.12
64961;SHT31;51487;52.266;10.542;2022-12-22T00:36:12;8.65;94.38
64961;SHT31;51487;52.266;10.542;2022-12-22T00:38:57;8.67;94.21
64961;SHT31;51487;52.266;10.542;2022-12-22T00:41:41;8.69;94.30
64961;SHT31;51487;52.266;10.542;2022-12-22T00:44:25;8.76;94.00
64961;SHT31;51487;52.266;10.542;2022-12-22T00:47:16;8.80;94.05
64961;SHT31;51487;52.266;10.542;2022-12-22T00:50:01;8.77;93.85
64961;SHT31;51487;52.266;10.542;2022-12-22T00:52:45;8.79;94.24
64961;SHT31;51487;52.266;10.542;2022-12-22T00:55:30;8.80;94.52
64961;SHT31;51487;52.266;10.542;2022-12-22T00:58:17;8.70;94.57
64961;SHT31;51487;52.266;10.542;2022-12-22T01:01:03;8.87;94.29
64961;SHT31;51487;52.266;10.542;2022-12-22T01:03:47;8.81;94.19
64961;SHT31;51487;52.266;10.542;2022-12-22T01:06:34;8.88;94.34
64961;SHT31;51487;52.266;10.542;2022-12-22T01:09:20;8.93;94.09
64961;SHT31;51487;52.266;10.542;2022-12-22T01:12:14;8.99;93.80
64961;SHT31;51487;52.266;10.542;2022-12-22T01:15:00;8.99;94.11
64961;SHT31;51487;52.266;10.542;2022-12-22T01:17:44;9.03;94.17
64961;SHT31;51487;52.266;10.542;2022-12-22T01:20:30;9.04;94.26
64961;SHT31;51487;52.266;10.542;2022-12-22T01:23:14;9.00;94.58
64961;SHT31;51487;52.266;10.542;2022-12-22T01:25:58;9.07;94.29
64961;SHT31;51487;52.266;10.542;2022-12-22T01:28:42;9.17;94.27
64961;SHT31;51487;52.266;10.542;2022-12-22T01:31:30;9.14;94.37
64961;SHT31;51487;52.266;10.542;2022-12-22T01:34:16;9.20;94.27
64961;SHT31;51487;52.266;10.542;2022-12-22T01:37:00;9.17;94.13
64961;SHT31;51487;52.266;10.542;2022-12-22T01:39:44;9.11;94.47
64961;SHT31;51487;52.266;10.542;2022-12-22T01:42:33;9.18;94.15
64961;SHT31;51487;52.266;10.542;2022-12-22T01:45:28;9.23;94.13
64961;SHT31;51487;52.266;10.542;2022-12-22T01:48:22;9.23;94.12
64961;SHT31;51487;52.266;10.542;2022-12-22T01:51:17;9.20;94.26
64961;SHT31;51487;52.266;10.542;2022-12-22T01:54:04;9.21;94.34
64961;SHT31;51487;52.266;10.542;2022-12-22T01:56:48;9.20;94.36
64961;SHT31;51487;52.266;10.542;2022-12-22T01:59:33;9.23;94.43
64961;SHT31;51487;52.266;10.542;2022-12-22T02:02:19;9.24;94.28
64961;SHT31;51487;52.266;10.542;2022-12-22T02:05:07;9.25;94.24
64961;SHT31;51487;52.266;10.542;2022-12-22T02:11:17;9.31;94.23
64961;SHT31;51487;52.266;10.542;2022-12-22T02:17:28;9.30;94.18
64961;SHT31;51487;52.266;10.542;2022-12-22T02:20:37;9.25;94.27
64961;SHT31;51487;52.266;10.542;2022-12-22T02:26:45;9.24;94.29
64961;SHT31;51487;52.266;10.542;2022-12-22T02:29:39;9.27;94.31
64961;SHT31;51487;52.266;10.542;2022-12-22T02:32:25;9.25;94.27
64961;SHT31;51487;52.266;10.542;2022-12-22T02:35:12;9.24;94.21
64961;SHT31;51487;52.266;10.542;2022-12-22T02:41:31;9.25;94.17
64961;SHT31;51487;52.266;10.542;2022-12-22T02:47:32;9.24;94.34
64961;SHT31;51487;52.266;10.542;2022-12-22T02:50:29;9.27;94.22
64961;SHT31;51487;52.266;10.542;2022-12-22T02:53:18;9.25;94.30
64961;SHT31;51487;52.266;10.542;2022-12-22T02:56:07;9.24;94.48
64961;SHT31;51487;52.266;10.542;2022-12-22T02:58:52;9.24;94.52
64961;SHT31;51487;52.266;10.542;2022-12-22T03:01:37;9.31;94.39
64961;SHT31;51487;52.266;10.542;2022-12-22T03:04:22;9.41;94.19
64961;SHT31;51487;52.266;10.542;2022-12-22T03:07:05;9.38;94.17
64961;SHT31;51487;52.266;10.542;2022-12-22T03:09:50;9.36;94.06
64961;SHT31;51487;52.266;10.542;2022-12-22T03:12:34;9.32;94.27
64961;SHT31;51487;52.266;10.542;2022-12-22T03:15:17;9.35;94.17
64961;SHT31;51487;52.266;10.542;2022-12-22T03:18:08;9.38;94.11
64961;SHT31;51487;52.266;10.542;2022-12-22T03:20:53;9.32;94.24
64961;SHT31;51487;52.266;10.542;2022-12-22T03:23:37;9.31;94.29
64961;SHT31;51487;52.266;10.542;2022-12-22T03:26:22;9.28;94.29
64961;SHT31;51487;52.266;10.542;2022-12-22T03:28:48;9.30;94.48
64961;SHT31;51487;52.266;10.542;2022-12-22T03:31:13;9.27;94.25
64961;SHT31;51487;52.266;10.542;2022-12-22T03:33:39;9.34;94.36
64961;SHT31;51487;52.266;10.542;2022-12-22T03:36:06;9.36;94.06
64961;SHT31;51487;52.266;10.542;2022-12-22T03:38:32;9.28;94.44
64961;SHT31;51487;52.266;10.542;2022-12-22T03:40:57;9.30;94.40
64961;SHT31;51487;52.266;10.542;2022-12-22T03:43:24;9.31;94.38
64961;SHT31;51487;52.266;10.542;2022-12-22T03:46:14;9.27;94.48
64961;SHT31;51487;52.266;10.542;2022-12-22T03:49:03;9.17;94.90
64961;SHT31;51487;52.266;10.542;2022-12-22T03:51:44;9.11;94.85
64961;SHT31;51487;52.266;10.542;2022-12-22T03:54:13;9.21;94.74
64961;SHT31;51487;52.266;10.542;2022-12-22T03:56:40;9.13;94.94
64961;SHT31;51487;52.266;10.542;2022-12-22T03:59:06;9.14;94.94
64961;SHT31;51487;52.266;10.542;2022-12-22T04:01:36;9.20;94.83
64961;SHT31;51487;52.266;10.542;2022-12-22T04:04:02;9.25;94.76
64961;SHT31;51487;52.266;10.542;2022-12-22T04:06:28;9.31;94.59
64961;SHT31;51487;52.266;10.542;2022-12-22T04:08:53;9.32;94.58
64961;SHT31;51487;52.266;10.542;2022-12-22T04:11:19;9.28;94.64
64961;SHT31;51487;52.266;10.542;2022-12-22T04:14:03;9.24;94.74
64961;SHT31;51487;52.266;10.542;2022-12-22T04:16:29;9.28;94.67
64961;SHT31;51487;52.266;10.542;2022-12-22T04:18:55;9.25;94.63
64961;SHT31;51487;52.266;10.542;2022-12-22T04:21:21;9.24;94.67
64961;SHT31;51487;52.266;10.542;2022-12-22T04:23:46;9.30;94.66
64961;SHT31;51487;52.266;10.542;2022-12-22T04:26:20;9.32;94.57
64961;SHT31;51487;52.266;10.542;2022-12-22T04:28:45;9.31;94.75
64961;SHT31;51487;52.266;10.542;2022-12-22T04:31:12;9.31;94.73
64961;SHT31;51487;52.266;10.542;2022-12-22T04:33:38;9.25;94.86
64961;SHT31;51487;52.266;10.542;2022-12-22T04:36:04;9.27;94.80
64961;SHT31;51487;52.266;10.542;2022-12-22T04:38:30;9.23;94.86
64961;SHT31;51487;52.266;10.542;2022-12-22T04:40:55;9.25;94.90
64961;SHT31;51487;52.266;10.542;2022-12-22T04:43:21;9.25;94.93
64961;SHT31;51487;52.266;10.542;2022-12-22T04:45:52;9.28;94.94
64961;SHT31;51487;52.266;10.542;2022-12-22T04:48:18;9.32;94.85
64961;SHT31;51487;52.266;10.542;2022-12-22T04:50:43;9.35;94.76
64961;SHT31;51487;52.266;10.542;2022-12-22T04:53:09;9.31;94.85
64961;SHT31;51487;52.266;10.542;2022-12-22T04:55:34;9.31;94.94
64961;SHT31;51487;52.266;10.542;2022-12-22T04:58:00;9.27;95.31
64961;SHT31;51487;52.266;10.542;2022-12-22T05:00:25;9.24;95.48
64961;SHT31;51487;52.266;10.542;2022-12-22T05:02:51;9.30;95.51
64961;SHT31;51487;52.266;10.542;2022-12-22T05:05:17;9.36;95.24
64961;SHT31;51487;52.266;10.542;2022-12-22T05:07:43;9.34;95.27
64961;SHT31;51487;52.266;10.542;2022-12-22T05:10:09;9.35;95.40
64961;SHT31;51487;52.266;10.542;2022-12-22T05:12:35;9.42;95.18
64961;SHT31;51487;52.266;10.542;2022-12-22T05:15:26;9.45;95.00
64961;SHT31;51487;52.266;10.542;2022-12-22T05:17:52;9.42;94.99
64961;SHT31;51487;52.266;10.542;2022-12-22T05:20:18;9.44;94.90
64961;SHT31;51487;52.266;10.542;2022-12-22T05:22:45;9.36;95.03
64961;SHT31;51487;52.266;10.542;2022-12-22T05:25:11;9.35;94.80
64961;SHT31;51487;52.266;10.542;2022-12-22T05:27:36;9.38;94.72
64961;SHT31;51487;52.266;10.542;2022-12-22T05:30:03;9.38;94.43
64961;SHT31;51487;52.266;10.542;2022-12-22T05:32:32;9.44;94.06
64961;SHT31;51487;52.266;10.542;2022-12-22T05:34:58;9.36;93.72
64961;SHT31;51487;52.266;10.542;2022-12-22T05:37:23;9.41;93.27
64961;SHT31;51487;52.266;10.542;2022-12-22T05:39:49;9.42;93.19
64961;SHT31;51487;52.266;10.542;2022-12-22T05:42:14;9.44;92.91
64961;SHT31;51487;52.266;10.542;2022-12-22T05:45:20;9.44;92.64
64961;SHT31;51487;52.266;10.542;2022-12-22T05:47:49;9.34;92.54
64961;SHT31;51487;52.266;10.542;2022-12-22T05:50:20;9.18;93.09
64961;SHT31;51487;52.266;10.542;2022-12-22T05:52:46;9.27;93.01
64961;SHT31;51487;52.266;10.542;2022-12-22T05:55:14;9.28;93.03
64961;SHT31;51487;52.266;10.542;2022-12-22T05:57:40;9.25;92.83
64961;SHT31;51487;52.266;10.542;2022-12-22T06:00:14;9.34;92.79
64961;SHT31;51487;52.266;10.542;2022-12-22T06:02:42;9.35;92.62
64961;SHT31;51487;52.266;10.542;2022-12-22T06:05:09;9.38;92.66
64961;SHT31;51487;52.266;10.542;2022-12-22T06:07:35;9.41;92.46
64961;SHT31;51487;52.266;10.542;2022-12-22T06:10:01;9.31;92.77
64961;SHT31;51487;52.266;10.542;2022-12-22T06:12:27;9.32;92.96
64961;SHT31;51487;52.266;10.542;2022-12-22T06:14:52;9.27;92.92
64961;SHT31;51487;52.266;10.542;2022-12-22T06:17:18;9.27;93.12
64961;SHT31;51487;52.266;10.542;2022-12-22T06:19:43;9.36;92.95
64961;SHT31;51487;52.266;10.542;2022-12-22T06:22:09;9.38;92.88
64961;SHT31;51487;52.266;10.542;2022-12-22T06:24:34;9.27;92.81
64961;SHT31;51487;52.266;10.542;2022-12-22T06:27:00;9.18;93.24
64961;SHT31;51487;52.266;10.542;2022-12-22T06:29:26;9.18;93.18
64961;SHT31;51487;52.266;10.542;2022-12-22T06:31:51;9.17;93.21
64961;SHT31;51487;52.266;10.542;2022-12-22T06:34:17;9.15;93.19
64961;SHT31;51487;52.266;10.542;2022-12-22T06:36:45;9.11;93.49
64961;SHT31;51487;52.266;10.542;2022-12-22T06:39:14;9.17;93.29
64961;SHT31;51487;52.266;10.542;2022-12-22T06:41:41;9.17;93.02
64961;SHT31;51487;52.266;10.542;2022-12-22T06:44:25;9.31;92.60
64961;SHT31;51487;52.266;10.542;2022-12-22T06:46:51;9.28;92.48
64961;SHT31;51487;52.266;10.542;2022-12-22T06:49:17;9.36;92.27
64961;SHT31;51487;52.266;10.542;2022-12-22T06:51:43;9.35;92.21
64961;SHT31;51487;52.266;10.542;2022-12-22T06:54:08;9.25;92.23
64961;SHT31;51487;52.266;10.542;2022-12-22T06:56:34;9.17;92.68
64961;SHT31;51487;52.266;10.542;2022-12-22T06:58:59;9.21;92.76
64961;SHT31;51487;52.266;10.542;2022-12-22T07:01:26;9.21;92.70
64961;SHT31;51487;52.266;10.542;2022-12-22T07:03:52;9.24;92.77
64961;SHT31;51487;52.266;10.542;2022-12-22T07:06:18;9.18;93.07
64961;SHT31;51487;52.266;10.542;2022-12-22T07:08:45;9.18;93.00
64961;SHT31;51487;52.266;10.542;2022-12-22T07:11:11;9.11;93.19
64961;SHT31;51487;52.266;10.542;2022-12-22T07:13:37;9.17;93.23
64961;SHT31;51487;52.266;10.542;2022-12-22T07:16:06;9.08;93.37
64961;SHT31;51487;52.266;10.542;2022-12-22T07:18:37;9.13;93.20
64961;SHT31;51487;52.266;10.542;2022-12-22T07:21:07;9.14;93.35
64961;SHT31;51487;52.266;10.542;2022-12-22T07:23:34;9.15;93.35
64961;SHT31;51487;52.266;10.542;2022-12-22T07:26:00;9.10;93.44
64961;SHT31;51487;52.266;10.542;2022-12-22T07:28:26;8.99;93.93
64961;SHT31;51487;52.266;10.542;2022-12-22T07:30:52;9.13;93.74
64961;SHT31;51487;52.266;10.542;2022-12-22T07:33:18;9.04;93.71
64961;SHT31;51487;52.266;10.542;2022-12-22T07:35:45;9.18;93.44
64961;SHT31;51487;52.266;10.542;2022-12-22T07:38:10;9.23;93.32
64961;SHT31;51487;52.266;10.542;2022-12-22T07:40:36;9.18;93.53
64961;SHT31;51487;52.266;10.542;2022-12-22T07:43:01;9.18;93.52
64961;SHT31;51487;52.266;10.542;2022-12-22T07:45:27;9.25;93.55
64961;SHT31;51487;52.266;10.542;2022-12-22T07:48:00;9.21;93.49
64961;SHT31;51487;52.266;10.542;2022-12-22T07:50:27;9.30;93.50
64961;SHT31;51487;52.266;10.542;2022-12-22T07:52:57;9.20;93.60
64961;SHT31;51487;52.266;10.542;2022-12-22T07:55:26;9.17;93.73
64961;SHT31;51487;52.266;10.542;2022-12-22T07:57:53;9.07;94.17
64961;SHT31;51487;52.266;10.542;2022-12-22T08:00:20;9.18;93.94
64961;SHT31;51487;52.266;10.542;2022-12-22T08:02:51;9.23;94.13
64961;SHT31;51487;52.266;10.542;2022-12-22T08:05:18;9.18;94.10
64961;SHT31;51487;52.266;10.542;2022-12-22T08:07:44;9.14;94.41
64961;SHT31;51487;52.266;10.542;2022-12-22T08:10:10;9.23;93.99
64961;SHT31;51487;52.266;10.542;2022-12-22T08:12:37;9.27;93.96
64961;SHT31;51487;52.266;10.542;2022-12-22T08:15:03;9.28;93.79
64961;SHT31;51487;52.266;10.542;2022-12-22T08:17:29;9.38;93.84
64961;SHT31;51487;52.266;10.542;2022-12-22T08:19:55;9.41;93.83
64961;SHT31;51487;52.266;10.542;2022-12-22T08:22:21;9.25;94.20
64961;SHT31;51487;52.266;10.542;2022-12-22T08:24:53;9.28;94.27
64961;SHT31;51487;52.266;10.542;2022-12-22T08:27:48;9.31;94.21
64961;SHT31;51487;52.266;10.542;2022-12-22T08:30:15;9.30;94.29
64961;SHT31;51487;52.266;10.542;2022-12-22T08:32:41;9.35;94.21
64961;SHT31;51487;52.266;10.542;2022-12-22T08:35:08;9.32;94.09
64961;SHT31;51487;52.266;10.542;2022-12-22T08:37:39;9.34;94.27
64961;SHT31;51487;52.266;10.542;2022-12-22T08:40:14;9.41;94.19
64961;SHT31;51487;52.266;10.542;2022-12-22T08:42:41;9.36;94.16
64961;SHT31;51487;52.266;10.542;2022-12-22T08:45:07;9.51;93.86
64961;SHT31;51487;52.266;10.542;2022-12-22T08:47:35;9.42;93.80
64961;SHT31;51487;52.266;10.542;2022-12-22T08:50:01;9.44;94.08
64961;SHT31;51487;52.266;10.542;2022-12-22T08:52:26;9.42;94.01
64961;SHT31;51487;52.266;10.542;2022-12-22T08:54:52;9.38;94.34
64961;SHT31;51487;52.266;10.542;2022-12-22T08:57:17;9.42;94.28
64961;SHT31;51487;52.266;10.542;2022-12-22T08:59:43;9.42;94.49
64961;SHT31;51487;52.266;10.542;2022-12-22T09:02:08;9.24;94.76
64961;SHT31;51487;52.266;10.542;2022-12-22T09:04:35;9.25;94.85
64961;SHT31;51487;52.266;10.542;2022-12-22T09:07:00;9.32;95.02
64961;SHT31;51487;52.266;10.542;2022-12-22T09:09:33;9.30;94.81
64961;SHT31;51487;52.266;10.542;2022-12-22T09:12:00;9.38;94.72
64961;SHT31;51487;52.266;10.542;2022-12-22T09:14:27;9.39;94.53
64961;SHT31;51487;52.266;10.542;2022-12-22T09:16:52;9.35;94.77
64961;SHT31;51487;52.266;10.542;2022-12-22T09:19:18;9.45;94.69
64961;SHT31;51487;52.266;10.542;2022-12-22T09:21:44;9.38;94.76
64961;SHT31;51487;52.266;10.542;2022-12-22T09:24:10;9.30;95.40
64961;SHT31;51487;52.266;10.542;2022-12-22T09:26:35;9.32;95.27
64961;SHT31;51487;52.266;10.542;2022-12-22T09:29:02;9.35;95.01
64961;SHT31;51487;52.266;10.542;2022-12-22T09:31:28;9.34;95.26
64961;SHT31;51487;52.266;10.542;2022-12-22T09:33:54;9.36;95.20
64961;SHT31;51487;52.266;10.542;2022-12-22T09:36:27;9.39;95.36
64961;SHT31;51487;52.266;10.542;2022-12-22T09:38:53;9.39;95.50
64961;SHT31;51487;52.266;10.542;2022-12-22T09:41:47;9.36;95.65
64961;SHT31;51487;52.266;10.542;2022-12-22T09:46:48;9.45;95.58
64961;SHT31;51487;52.266;10.542;2022-12-22T09:49:16;9.45;95.83
64961;SHT31;51487;52.266;10.542;2022-12-22T09:51:58;9.48;95.48
64961;SHT31;51487;52.266;10.542;2022-12-22T09:54:25;9.59;95.32
64961;SHT31;51487;52.266;10.542;2022-12-22T09:56:51;9.58;95.33
64961;SHT31;51487;52.266;10.542;2022-12-22T09:59:19;9.61;95.53
64961;SHT31;51487;52.266;10.542;2022-12-22T10:07:32;9.76;95.17
64961;SHT31;51487;52.266;10.542;2022-12-22T10:10:23;9.81;95.10
64961;SHT31;51487;52.266;10.542;2022-12-22T10:13:02;9.76;95.16
64961;SHT31;51487;52.266;10.542;2022-12-22T10:15:40;9.81;95.12
64961;SHT31;51487;52.266;10.542;2022-12-22T10:18:15;9.76;95.32
64961;SHT31;51487;52.266;10.542;2022-12-22T10:23:31;9.76;94.98
64961;SHT31;51487;52.266;10.542;2022-12-22T10:26:12;9.81;95.05
64961;SHT31;51487;52.266;10.542;2022-12-22T10:28:51;9.62;95.67
64961;SHT31;51487;52.266;10.542;2022-12-22T10:33:49;9.48;96.19
64961;SHT31;51487;52.266;10.542;2022-12-22T10:36:34;9.55;96.26
64961;SHT31;51487;52.266;10.542;2022-12-22T10:39:09;9.63;96.25
64961;SHT31;51487;52.266;10.542;2022-12-22T10:41:40;9.69;96.08
64961;SHT31;51487;52.266;10.542;2022-12-22T10:44:29;9.68;95.93
64961;SHT31;51487;52.266;10.542;2022-12-22T10:47:10;9.51;96.48
64961;SHT31;51487;52.266;10.542;2022-12-22T10:49:44;9.65;96.25
64961;SHT31;51487;52.266;10.542;2022-12-22T10:52:21;9.66;96.40
64961;SHT31;51487;52.266;10.542;2022-12-22T10:54:48;9.78;96.26
64961;SHT31;51487;52.266;10.542;2022-12-22T11:04:45;9.78;97.40
64961;SHT31;51487;52.266;10.542;2022-12-22T11:07:10;9.82;97.50
64961;SHT31;51487;52.266;10.542;2022-12-22T11:09:36;9.92;97.21
64961;SHT31;51487;52.266;10.542;2022-12-22T11:17:49;9.94;97.05
64961;SHT31;51487;52.266;10.542;2022-12-22T11:43:25;10.07;96.32
64961;SHT31;51487;52.266;10.542;2022-12-22T11:46:23;10.16;96.04
64961;SHT31;51487;52.266;10.542;2022-12-22T11:48:59;10.25;96.19
64961;SHT31;51487;52.266;10.542;2022-12-22T12:00:33;10.13;96.47
64961;SHT31;51487;52.266;10.542;2022-12-22T12:15:43;9.89;97.44
64961;SHT31;51487;52.266;10.542;2022-12-22T12:18:38;10.07;96.83
64961;SHT31;51487;52.266;10.542;2022-12-22T12:21:54;9.89;97.17
64961;SHT31;51487;52.266;10.542;2022-12-22T12:29:28;9.79;97.72
64961;SHT31;51487;52.266;10.542;2022-12-22T12:32:19;9.63;98.19
64961;SHT31;51487;52.266;10.542;2022-12-22T12:34:50;9.76;97.86
64961;SHT31;51487;52.266;10.542;2022-12-22T12:37:36;9.71;98.00
64961;SHT31;51487;52.266;10.542;2022-12-22T12:43:07;9.89;97.41
64961;SHT31;51487;52.266;10.542;2022-12-22T12:45:41;9.96;96.69
64961;SHT31;51487;52.266;10.542;2022-12-22T12:50:49;10.06;95.91
64961;SHT31;51487;52.266;10.542;2022-12-22T12:53:17;10.06;95.91
64961;SHT31;51487;52.266;10.542;2022-12-22T13:01:11;10.02;96.11
64961;SHT31;51487;52.266;10.542;2022-12-22T13:03:42;10.06;95.69
64961;SHT31;51487;52.266;10.542;2022-12-22T13:06:46;10.02;95.74
64961;SHT31;51487;52.266;10.542;2022-12-22T13:11:36;10.02;95.61
64961;SHT31;51487;52.266;10.542;2022-12-22T13:14:03;10.02;95.34
64961;SHT31;51487;52.266;10.542;2022-12-22T13:16:32;9.86;95.80
64961;SHT31;51487;52.266;10.542;2022-12-22T13:19:04;9.90;95.87
64961;SHT31;51487;52.266;10.542;2022-12-22T13:21:44;9.86;96.03
64961;SHT31;51487;52.266;10.542;2022-12-22T13:24:19;9.97;95.62
64961;SHT31;51487;52.266;10.542;2022-12-22T13:26:48;10.02;95.31
64961;SHT31;51487;52.266;10.542;2022-12-22T13:29:26;9.94;95.37
64961;SHT31;51487;52.266;10.542;2022-12-22T13:32:03;9.93;95.55
64961;SHT31;51487;52.266;10.542;2022-12-22T13:34:44;9.89;96.08
64961;SHT31;51487;52.266;10.542;2022-12-22T13:37:21;9.94;95.91
64961;SHT31;51487;52.266;10.542;2022-12-22T13:42:37;9.90;95.71
64961;SHT31;51487;52.266;10.542;2022-12-22T13:45:13;9.71;96.03
64961;SHT31;51487;52.266;10.542;2022-12-22T13:47:43;9.73;96.14
64961;SHT31;51487;52.266;10.542;2022-12-22T13:50:22;9.82;95.78
64961;SHT31;51487;52.266;10.542;2022-12-22T13:52:51;9.81;95.59
64961;SHT31;51487;52.266;10.542;2022-12-22T13:55:27;9.62;96.33
64961;SHT31;51487;52.266;10.542;2022-12-22T13:58:00;9.72;95.65
64961;SHT31;51487;52.266;10.542;2022-12-22T14:00:28;9.65;95.81
64961;SHT31;51487;52.266;10.542;2022-12-22T14:02:54;9.62;95.37
64961;SHT31;51487;52.266;10.542;2022-12-22T14:05:20;9.69;95.37
64961;SHT31;51487;52.266;10.542;2022-12-22T14:08:04;9.68;94.76
64961;SHT31;51487;52.266;10.542;2022-12-22T14:10:43;9.55;95.28
64961;SHT31;51487;52.266;10.542;2022-12-22T14:13:19;9.52;95.50
64961;SHT31;51487;52.266;10.542;2022-12-22T14:15:58;9.41;95.54
64961;SHT31;51487;52.266;10.542;2022-12-22T14:18:24;9.41;95.22
64961;SHT31;51487;52.266;10.542;2022-12-22T14:20:51;9.38;95.25
64961;SHT31;51487;52.266;10.542;2022-12-22T14:23:28;9.31;95.46
64961;SHT31;51487;52.266;10.542;2022-12-22T14:25:57;9.42;94.80
64961;SHT31;51487;52.266;10.542;2022-12-22T14:28:44;9.42;94.39
64961;SHT31;51487;52.266;10.542;2022-12-22T14:31:16;9.39;94.05
64961;SHT31;51487;52.266;10.542;2022-12-22T14:34:26;9.20;94.63
64961;SHT31;51487;52.266;10.542;2022-12-22T14:36:52;9.18;94.74
64961;SHT31;51487;52.266;10.542;2022-12-22T14:39:25;9.08;95.01
64961;SHT31;51487;52.266;10.542;2022-12-22T14:42:11;9.04;95.24
64961;SHT31;51487;52.266;10.542;2022-12-22T14:44:45;8.90;95.65
64961;SHT31;51487;52.266;10.542;2022-12-22T14:50:00;8.84;95.74
64961;SHT31;51487;52.266;10.542;2022-12-22T14:58:09;8.66;96.69
64961;SHT31;51487;52.266;10.542;2022-12-22T15:00:40;8.63;96.54
64961;SHT31;51487;52.266;10.542;2022-12-22T15:03:36;8.48;96.80
64961;SHT31;51487;52.266;10.542;2022-12-22T15:09:08;8.46;96.51
64961;SHT31;51487;52.266;10.542;2022-12-22T15:11:50;8.46;96.24
64961;SHT31;51487;52.266;10.542;2022-12-22T15:14:21;8.39;96.46
64961;SHT31;51487;52.266;10.542;2022-12-22T15:16:47;8.29;96.46
64961;SHT31;51487;52.266;10.542;2022-12-22T15:19:16;8.26;96.60
64961;SHT31;51487;52.266;10.542;2022-12-22T15:21:43;8.26;96.39
64961;SHT31;51487;52.266;10.542;2022-12-22T15:24:14;8.21;96.28
64961;SHT31;51487;52.266;10.542;2022-12-22T15:26:41;8.20;96.29
64961;SHT31;51487;52.266;10.542;2022-12-22T15:29:07;8.14;96.48
64961;SHT31;51487;52.266;10.542;2022-12-22T15:31:33;8.12;96.40
64961;SHT31;51487;52.266;10.542;2022-12-22T15:34:02;8.12;96.39
64961;SHT31;51487;52.266;10.542;2022-12-22T15:36:27;8.01;96.50
64961;SHT31;51487;52.266;10.542;2022-12-22T15:38:53;7.93;96.86
64961;SHT31;51487;52.266;10.542;2022-12-22T15:41:19;7.84;96.99
64961;SHT31;51487;52.266;10.542;2022-12-22T15:43:46;7.73;97.14
64961;SHT31;51487;52.266;10.542;2022-12-22T15:46:16;7.67;97.34
64961;SHT31;51487;52.266;10.542;2022-12-22T15:48:44;7.57;97.50
64961;SHT31;51487;52.266;10.542;2022-12-22T15:51:22;7.57;97.83
64961;SHT31;51487;52.266;10.542;2022-12-22T15:53:49;7.53;97.83
64961;SHT31;51487;52.266;10.542;2022-12-22T15:56:21;7.53;97.99
64961;SHT31;51487;52.266;10.542;2022-12-22T15:58:48;7.50;97.84
64961;SHT31;51487;52.266;10.542;2022-12-22T16:01:14;7.52;97.83
64961;SHT31;51487;52.266;10.542;2022-12-22T16:03:39;7.60;97.29
64961;SHT31;51487;52.266;10.542;2022-12-22T16:06:05;7.59;96.91
64961;SHT31;51487;52.266;10.542;2022-12-22T16:08:37;7.62;96.00
64961;SHT31;51487;52.266;10.542;2022-12-22T16:11:04;7.50;96.35
64961;SHT31;51487;52.266;10.542;2022-12-22T16:13:31;7.49;96.17
64961;SHT31;51487;52.266;10.542;2022-12-22T16:15:58;7.46;96.06
64961;SHT31;51487;52.266;10.542;2022-12-22T16:18:24;7.45;95.87
64961;SHT31;51487;52.266;10.542;2022-12-22T16:20:50;7.45;95.78
64961;SHT31;51487;52.266;10.542;2022-12-22T16:23:20;7.36;95.85
64961;SHT31;51487;52.266;10.542;2022-12-22T16:25:47;7.35;95.71
64961;SHT31;51487;52.266;10.542;2022-12-22T16:28:24;7.36;95.69
64961;SHT31;51487;52.266;10.542;2022-12-22T16:30:51;7.36;95.62
64961;SHT31;51487;52.266;10.542;2022-12-22T16:33:17;7.35;95.70
64961;SHT31;51487;52.266;10.542;2022-12-22T16:35:43;7.30;95.63
64961;SHT31;51487;52.266;10.542;2022-12-22T16:38:09;7.28;95.46
64961;SHT31;51487;52.266;10.542;2022-12-22T16:40:45;7.19;95.65
64961;SHT31;51487;52.266;10.542;2022-12-22T16:43:30;7.19;95.50
64961;SHT31;51487;52.266;10.542;2022-12-22T16:45:59;7.07;95.61
64961;SHT31;51487;52.266;10.542;2022-12-22T16:48:40;7.12;95.68
64961;SHT31;51487;52.266;10.542;2022-12-22T16:51:27;7.15;95.43
64961;SHT31;51487;52.266;10.542;2022-12-22T16:53:53;7.09;95.19
64961;SHT31;51487;52.266;10.542;2022-12-22T16:56:22;7.14;95.29
64961;SHT31;51487;52.266;10.542;2022-12-22T16:58:49;7.14;95.30
64961;SHT31;51487;52.266;10.542;2022-12-22T17:01:52;7.20;94.65
64961;SHT31;51487;52.266;10.542;2022-12-22T17:04:30;7.18;94.84
64961;SHT31;51487;52.266;10.542;2022-12-22T17:06:59;7.23;94.73
64961;SHT31;51487;52.266;10.542;2022-12-22T17:09:52;7.16;94.78
64961;SHT31;51487;52.266;10.542;2022-12-22T17:12:29;7.30;94.23
64961;SHT31;51487;52.266;10.542;2022-12-22T17:14:57;7.29;94.07
64961;SHT31;51487;52.266;10.542;2022-12-22T17:17:23;7.30;94.03
64961;SHT31;51487;52.266;10.542;2022-12-22T17:19:52;7.36;93.79
64961;SHT31;51487;52.266;10.542;2022-12-22T17:22:29;7.33;93.80
64961;SHT31;51487;52.266;10.542;2022-12-22T17:25:00;7.40;93.45
64961;SHT31;51487;52.266;10.542;2022-12-22T17:27:29;7.40;93.04
64961;SHT31;51487;52.266;10.542;2022-12-22T17:29:57;7.36;92.75
64961;SHT31;51487;52.266;10.542;2022-12-22T17:32:23;7.38;92.94
64961;SHT31;51487;52.266;10.542;2022-12-22T17:34:49;7.42;92.89
64961;SHT31;51487;52.266;10.542;2022-12-22T17:37:19;7.42;92.75
64961;SHT31;51487;52.266;10.542;2022-12-22T17:39:50;7.35;92.74
64961;SHT31;51487;52.266;10.542;2022-12-22T17:42:21;7.36;92.61
64961;SHT31;51487;52.266;10.542;2022-12-22T17:44:48;7.36;92.82
64961;SHT31;51487;52.266;10.542;2022-12-22T17:47:17;7.35;92.60
64961;SHT31;51487;52.266;10.542;2022-12-22T17:49:45;7.35;92.66
64961;SHT31;51487;52.266;10.542;2022-12-22T17:52:22;7.35;92.51
64961;SHT31;51487;52.266;10.542;2022-12-22T17:54:51;7.33;92.67
64961;SHT31;51487;52.266;10.542;2022-12-22T17:57:24;7.36;92.66
64961;SHT31;51487;52.266;10.542;2022-12-22T17:59:50;7.32;93.05
64961;SHT31;51487;52.266;10.542;2022-12-22T18:02:19;7.20;93.43
64961;SHT31;51487;52.266;10.542;2022-12-22T18:04:46;7.28;93.41
64961;SHT31;51487;52.266;10.542;2022-12-22T18:07:16;7.23;93.48
64961;SHT31;51487;52.266;10.542;2022-12-22T18:09:44;7.35;93.16
64961;SHT31;51487;52.266;10.542;2022-12-22T18:12:18;7.30;93.22